sensor_id;sensor_type;location;lat;lon;timestamp;temperature;humidity
9151;DHT22;4610;50.006;7.490;2022-10-22T00:02:27;13.10;99.90
9151;DHT22;4610;50.006;7.490;2022-10-22T00:04:54;13.20;99.90
9151;DHT22;4610;50.006;7.490;2022-10-22T00:07:21;13.40;99.90
9151;DHT22;4610;50.006;7.490;2022-10-22T00:09:48;13.40;99.90
9151;DHT22;4610;50.006;7.490;2022-10-22T00:12:15;13.50;99.90
9151;DHT22;4610;50.006;7.490;2022-10-22T00:14:42;13.60;99.90
9151;DHT22;4610;50.006;7.490;2022-10-22T00:17:09;13.60;99.90
9151;DHT22;4610;50.006;7.490;2022-10-22T00:19:37;13.70;99.90
9151;DHT22;4610;50.006;7.490;2022-10-22T00:22:04;13.70;99.90
9151;DHT22;4610;50.006;7.490;2022-10-22T00:24:32;13.70;99.90
9151;DHT22;4610;50.006;7.490;2022-10-22T00:26:59;13.70;99.90
9151;DHT22;4610;50.006;7.490;2022-10-22T00:29:26;13.70;99.90
9151;DHT22;4610;50.006;7.490;2022-10-22T00:31:52;13.70;99.90
9151;DHT22;4610;50.006;7.490;2022-10-22T00:34:20;13.70;99.90
9151;DHT22;4610;50.006;7.490;2022-10-22T00:36:49;13.70;99.90
9151;DHT22;4610;50.006;7.490;2022-10-22T00:39:19;13.70;99.90
9151;DHT22;4610;50.006;7.490;2022-10-22T00:41:47;13.70;99.90
9151;DHT22;4610;50.006;7.490;2022-10-22T00:47:19;13.70;99.90
9151;DHT22;4610;50.006;7.490;2022-10-22T00:49:49;13.70;99.90
9151;DHT22;4610;50.006;7.490;2022-10-22T00:52:18;13.70;99.90
9151;DHT22;4610;50.006;7.490;2022-10-22T00:54:45;13.70;99.90
9151;DHT22;4610;50.006;7.490;2022-10-22T00:57:12;13.70;99.90
9151;DHT22;4610;50.006;7.490;2022-10-22T00:59:39;13.70;99.90
9151;DHT22;4610;50.006;7.490;2022-10-22T01:02:06;13.70;99.90
9151;DHT22;4610;50.006;7.490;2022-10-22T01:04:32;13.70;99.90
9151;DHT22;4610;50.006;7.490;2022-10-22T01:06:59;13.70;99.90
9151;DHT22;4610;50.006;7.490;2022-10-22T01:09:32;13.70;99.90
9151;DHT22;4610;50.006;7.490;2022-10-22T01:12:03;13.70;99.90
9151;DHT22;4610;50.006;7.490;2022-10-22T01:14:43;13.70;99.90
9151;DHT22;4610;50.006;7.490;2022-10-22T01:17:17;13.80;99.90
9151;DHT22;4610;50.006;7.490;2022-10-22T01:19:58;13.80;99.90
9151;DHT22;4610;50.006;7.490;2022-10-22T01:22:29;13.70;99.90
9151;DHT22;4610;50.006;7.490;2022-10-22T01:25:05;13.80;99.90
9151;DHT22;4610;50.006;7.490;2022-10-22T01:27:44;13.70;99.90
9151;DHT22;4610;50.006;7.490;2022-10-22T01:30:14;13.80;99.90
9151;DHT22;4610;50.006;7.490;2022-10-22T01:32:45;13.80;99.90
9151;DHT22;4610;50.006;7.490;2022-10-22T01:35:17;13.80;99.90
9151;DHT22;4610;50.006;7.490;2022-10-22T01:37:48;13.80;99.90
9151;DHT22;4610;50.006;7.490;2022-10-22T01:40:16;13.80;99.90
9151;DHT22;4610;50.006;7.490;2022-10-22T01:42:54;13.80;99.90
9151;DHT22;4610;50.006;7.490;2022-10-22T01:45:22;13.80;99.90
9151;DHT22;4610;50.006;7.490;2022-10-22T01:47:56;13.80;99.90
9151;DHT22;4610;50.006;7.490;2022-10-22T01:50:40;13.80;99.90
9151;DHT22;4610;50.006;7.490;2022-10-22T01:53:27;13.80;99.90
9151;DHT22;4610;50.006;7.490;2022-10-22T01:56:09;13.80;99.90
9151;DHT22;4610;50.006;7.490;2022-10-22T01:58:46;13.70;99.90
9151;DHT22;4610;50.006;7.490;2022-10-22T02:01:23;13.70;99.90
9151;DHT22;4610;50.006;7.490;2022-10-22T02:03:59;13.70;99.90
9151;DHT22;4610;50.006;7.490;2022-10-22T02:06:28;13.60;99.90
9151;DHT22;4610;50.006;7.490;2022-10-22T02:08:57;13.60;99.90
9151;DHT22;4610;50.006;7.490;2022-10-22T02:11:24;13.40;99.90
9151;DHT22;4610;50.006;7.490;2022-10-22T02:13:54;13.30;99.90
9151;DHT22;4610;50.006;7.490;2022-10-22T02:16:27;13.30;99.90
9151;DHT22;4610;50.006;7.490;2022-10-22T02:18:56;13.40;99.90
9151;DHT22;4610;50.006;7.490;2022-10-22T02:21:23;13.40;99.90
9151;DHT22;4610;50.006;7.490;2022-10-22T02:23:50;13.50;99.90
9151;DHT22;4610;50.006;7.490;2022-10-22T02:26:21;13.50;99.90
9151;DHT22;4610;50.006;7.490;2022-10-22T02:28:55;13.50;99.90
9151;DHT22;4610;50.006;7.490;2022-10-22T02:31:27;13.50;99.90
9151;DHT22;4610;50.006;7.490;2022-10-22T02:33:57;13.50;99.90
9151;DHT22;4610;50.006;7.490;2022-10-22T02:36:25;13.50;99.90
9151;DHT22;4610;50.006;7.490;2022-10-22T02:38:53;13.50;99.90
9151;DHT22;4610;50.006;7.490;2022-10-22T02:41:20;13.50;99.90
9151;DHT22;4610;50.006;7.490;2022-10-22T02:43:49;13.50;99.90
9151;DHT22;4610;50.006;7.490;2022-10-22T02:46:16;13.50;99.90
9151;DHT22;4610;50.006;7.490;2022-10-22T02:48:45;13.50;99.90
9151;DHT22;4610;50.006;7.490;2022-10-22T02:51:11;13.50;99.90
9151;DHT22;4610;50.006;7.490;2022-10-22T02:53:38;13.50;99.90
9151;DHT22;4610;50.006;7.490;2022-10-22T02:56:06;13.50;99.90
9151;DHT22;4610;50.006;7.490;2022-10-22T02:58:33;13.40;99.90
9151;DHT22;4610;50.006;7.490;2022-10-22T03:00:59;13.40;99.90
9151;DHT22;4610;50.006;7.490;2022-10-22T03:03:26;13.40;99.90
9151;DHT22;4610;50.006;7.490;2022-10-22T03:05:54;13.30;99.90
9151;DHT22;4610;50.006;7.490;2022-10-22T03:08:21;13.30;99.90
9151;DHT22;4610;50.006;7.490;2022-10-22T03:10:47;13.20;99.90
9151;DHT22;4610;50.006;7.490;2022-10-22T03:13:14;13.20;99.90
9151;DHT22;4610;50.006;7.490;2022-10-22T03:15:41;13.10;99.90
9151;DHT22;4610;50.006;7.490;2022-10-22T03:18:08;13.10;99.90
9151;DHT22;4610;50.006;7.490;2022-10-22T03:20:34;13.10;99.90
9151;DHT22;4610;50.006;7.490;2022-10-22T03:23:03;13.00;99.90
9151;DHT22;4610;50.006;7.490;2022-10-22T03:25:31;13.00;99.90
9151;DHT22;4610;50.006;7.490;2022-10-22T03:28:01;13.00;99.90
9151;DHT22;4610;50.006;7.490;2022-10-22T03:30:28;12.90;99.90
9151;DHT22;4610;50.006;7.490;2022-10-22T03:32:55;12.90;99.90
9151;DHT22;4610;50.006;7.490;2022-10-22T03:35:22;12.90;99.90
9151;DHT22;4610;50.006;7.490;2022-10-22T03:37:49;12.90;99.90
9151;DHT22;4610;50.006;7.490;2022-10-22T03:40:18;13.00;99.90
9151;DHT22;4610;50.006;7.490;2022-10-22T03:42:45;13.10;99.90
9151;DHT22;4610;50.006;7.490;2022-10-22T03:45:12;13.10;99.90
9151;DHT22;4610;50.006;7.490;2022-10-22T03:47:39;13.20;99.90
9151;DHT22;4610;50.006;7.490;2022-10-22T03:50:07;13.30;99.90
9151;DHT22;4610;50.006;7.490;2022-10-22T03:52:35;13.30;99.90
9151;DHT22;4610;50.006;7.490;2022-10-22T03:55:04;13.30;99.90
9151;DHT22;4610;50.006;7.490;2022-10-22T03:57:33;13.40;99.90
9151;DHT22;4610;50.006;7.490;2022-10-22T04:00:00;13.40;99.90
9151;DHT22;4610;50.006;7.490;2022-10-22T04:02:26;13.40;99.90
9151;DHT22;4610;50.006;7.490;2022-10-22T04:04:53;13.40;99.90
9151;DHT22;4610;50.006;7.490;2022-10-22T04:07:20;13.50;99.90
9151;DHT22;4610;50.006;7.490;2022-10-22T04:09:47;13.50;99.90
9151;DHT22;4610;50.006;7.490;2022-10-22T04:12:13;13.50;99.90
9151;DHT22;4610;50.006;7.490;2022-10-22T04:14:42;13.40;99.90
9151;DHT22;4610;50.006;7.490;2022-10-22T04:17:08;13.50;99.90
9151;DHT22;4610;50.006;7.490;2022-10-22T04:19:35;13.50;99.90
9151;DHT22;4610;50.006;7.490;2022-10-22T04:22:02;13.50;99.90
9151;DHT22;4610;50.006;7.490;2022-10-22T04:24:30;13.50;99.90
9151;DHT22;4610;50.006;7.490;2022-10-22T04:26:57;13.50;99.90
9151;DHT22;4610;50.006;7.490;2022-10-22T04:29:25;13.50;99.90
9151;DHT22;4610;50.006;7.490;2022-10-22T04:31:53;13.50;99.90
9151;DHT22;4610;50.006;7.490;2022-10-22T04:34:20;13.50;99.90
9151;DHT22;4610;50.006;7.490;2022-10-22T04:36:47;13.50;99.90
9151;DHT22;4610;50.006;7.490;2022-10-22T04:39:13;13.50;99.90
9151;DHT22;4610;50.006;7.490;2022-10-22T04:41:40;13.50;99.90
9151;DHT22;4610;50.006;7.490;2022-10-22T04:44:07;13.50;99.90
9151;DHT22;4610;50.006;7.490;2022-10-22T04:46:34;13.60;99.90
9151;DHT22;4610;50.006;7.490;2022-10-22T04:49:03;13.60;99.90
9151;DHT22;4610;50.006;7.490;2022-10-22T04:51:30;13.50;99.90
9151;DHT22;4610;50.006;7.490;2022-10-22T04:53:57;13.60;99.90
9151;DHT22;4610;50.006;7.490;2022-10-22T04:56:26;13.60;99.90
9151;DHT22;4610;50.006;7.490;2022-10-22T04:58:54;13.50;99.90
9151;DHT22;4610;50.006;7.490;2022-10-22T05:01:23;13.50;99.90
9151;DHT22;4610;50.006;7.490;2022-10-22T05:03:53;13.60;99.90
9151;DHT22;4610;50.006;7.490;2022-10-22T05:06:22;13.60;99.90
9151;DHT22;4610;50.006;7.490;2022-10-22T05:08:52;13.70;99.90
9151;DHT22;4610;50.006;7.490;2022-10-22T05:11:21;13.70;99.90
9151;DHT22;4610;50.006;7.490;2022-10-22T05:13:48;13.70;99.90
9151;DHT22;4610;50.006;7.490;2022-10-22T05:16:15;13.70;99.90
9151;DHT22;4610;50.006;7.490;2022-10-22T05:18:43;13.70;99.90
9151;DHT22;4610;50.006;7.490;2022-10-22T05:21:12;13.70;99.90
9151;DHT22;4610;50.006;7.490;2022-10-22T05:23:42;13.60;99.90
9151;DHT22;4610;50.006;7.490;2022-10-22T05:26:10;13.60;99.90
9151;DHT22;4610;50.006;7.490;2022-10-22T05:28:38;13.50;99.90
9151;DHT22;4610;50.006;7.490;2022-10-22T05:31:06;13.50;99.90
9151;DHT22;4610;50.006;7.490;2022-10-22T05:33:34;13.40;99.90
9151;DHT22;4610;50.006;7.490;2022-10-22T05:36:11;13.50;99.90
9151;DHT22;4610;50.006;7.490;2022-10-22T05:38:41;13.60;99.90
9151;DHT22;4610;50.006;7.490;2022-10-22T05:41:10;13.60;99.90
9151;DHT22;4610;50.006;7.490;2022-10-22T05:43:37;13.70;99.90
9151;DHT22;4610;50.006;7.490;2022-10-22T05:46:05;13.90;99.90
9151;DHT22;4610;50.006;7.490;2022-10-22T05:48:33;13.60;99.90
9151;DHT22;4610;50.006;7.490;2022-10-22T05:51:00;13.20;99.90
9151;DHT22;4610;50.006;7.490;2022-10-22T05:53:29;13.10;99.90
9151;DHT22;4610;50.006;7.490;2022-10-22T05:56:00;13.00;99.90
9151;DHT22;4610;50.006;7.490;2022-10-22T05:58:27;12.90;99.90
9151;DHT22;4610;50.006;7.490;2022-10-22T06:00:54;12.80;99.90
9151;DHT22;4610;50.006;7.490;2022-10-22T06:03:20;12.70;99.90
9151;DHT22;4610;50.006;7.490;2022-10-22T06:05:47;12.70;99.90
9151;DHT22;4610;50.006;7.490;2022-10-22T06:08:14;12.60;99.90
9151;DHT22;4610;50.006;7.490;2022-10-22T06:10:41;12.60;99.90
9151;DHT22;4610;50.006;7.490;2022-10-22T06:13:10;12.60;99.90
9151;DHT22;4610;50.006;7.490;2022-10-22T06:15:37;12.70;99.90
9151;DHT22;4610;50.006;7.490;2022-10-22T06:18:03;12.70;99.90
9151;DHT22;4610;50.006;7.490;2022-10-22T06:20:32;12.70;99.90
9151;DHT22;4610;50.006;7.490;2022-10-22T06:22:59;12.80;99.90
9151;DHT22;4610;50.006;7.490;2022-10-22T06:25:26;12.90;99.90
9151;DHT22;4610;50.006;7.490;2022-10-22T06:27:53;12.90;99.90
9151;DHT22;4610;50.006;7.490;2022-10-22T06:30:21;12.90;99.90
9151;DHT22;4610;50.006;7.490;2022-10-22T06:32:47;12.90;99.90
9151;DHT22;4610;50.006;7.490;2022-10-22T06:35:14;13.00;99.90
9151;DHT22;4610;50.006;7.490;2022-10-22T06:37:41;13.00;99.90
9151;DHT22;4610;50.006;7.490;2022-10-22T06:40:10;12.90;99.90
9151;DHT22;4610;50.006;7.490;2022-10-22T06:42:36;12.80;99.90
9151;DHT22;4610;50.006;7.490;2022-10-22T06:45:04;12.80;99.90
9151;DHT22;4610;50.006;7.490;2022-10-22T06:47:32;12.90;99.90
9151;DHT22;4610;50.006;7.490;2022-10-22T06:49:59;12.90;99.90
9151;DHT22;4610;50.006;7.490;2022-10-22T06:52:26;12.90;99.90
9151;DHT22;4610;50.006;7.490;2022-10-22T06:54:53;12.90;99.90
9151;DHT22;4610;50.006;7.490;2022-10-22T06:57:19;12.90;99.90
9151;DHT22;4610;50.006;7.490;2022-10-22T06:59:46;13.00;99.90
9151;DHT22;4610;50.006;7.490;2022-10-22T07:02:13;13.10;99.90
9151;DHT22;4610;50.006;7.490;2022-10-22T07:04:41;13.20;99.90
9151;DHT22;4610;50.006;7.490;2022-10-22T07:07:07;13.30;99.90
9151;DHT22;4610;50.006;7.490;2022-10-22T07:09:34;13.40;99.90
9151;DHT22;4610;50.006;7.490;2022-10-22T07:12:01;13.40;99.90
9151;DHT22;4610;50.006;7.490;2022-10-22T07:14:28;13.50;99.90
9151;DHT22;4610;50.006;7.490;2022-10-22T07:16:54;13.60;99.90
9151;DHT22;4610;50.006;7.490;2022-10-22T07:19:21;13.60;99.90
9151;DHT22;4610;50.006;7.490;2022-10-22T07:21:49;13.60;99.90
9151;DHT22;4610;50.006;7.490;2022-10-22T07:24:16;13.70;99.90
9151;DHT22;4610;50.006;7.490;2022-10-22T07:26:43;13.70;99.90
9151;DHT22;4610;50.006;7.490;2022-10-22T07:29:09;14.20;99.90
9151;DHT22;4610;50.006;7.490;2022-10-22T07:31:36;14.80;99.90
9151;DHT22;4610;50.006;7.490;2022-10-22T07:34:03;15.00;99.90
9151;DHT22;4610;50.006;7.490;2022-10-22T07:36:30;15.10;99.90
9151;DHT22;4610;50.006;7.490;2022-10-22T07:38:58;15.40;99.90
9151;DHT22;4610;50.006;7.490;2022-10-22T07:41:26;15.70;99.90
9151;DHT22;4610;50.006;7.490;2022-10-22T07:43:53;15.90;99.90
9151;DHT22;4610;50.006;7.490;2022-10-22T07:46:20;16.10;99.90
9151;DHT22;4610;50.006;7.490;2022-10-22T07:48:47;16.60;99.90
9151;DHT22;4610;50.006;7.490;2022-10-22T07:51:14;16.70;99.90
9151;DHT22;4610;50.006;7.490;2022-10-22T07:53:41;17.50;99.90
9151;DHT22;4610;50.006;7.490;2022-10-22T07:56:09;18.40;99.90
9151;DHT22;4610;50.006;7.490;2022-10-22T07:58:36;19.30;99.90
9151;DHT22;4610;50.006;7.490;2022-10-22T08:01:03;20.30;99.90
9151;DHT22;4610;50.006;7.490;2022-10-22T08:03:31;21.00;99.90
9151;DHT22;4610;50.006;7.490;2022-10-22T08:05:57;21.80;99.90
9151;DHT22;4610;50.006;7.490;2022-10-22T08:08:26;22.50;99.90
9151;DHT22;4610;50.006;7.490;2022-10-22T08:10:55;22.70;99.90
9151;DHT22;4610;50.006;7.490;2022-10-22T08:13:24;22.70;99.90
9151;DHT22;4610;50.006;7.490;2022-10-22T08:15:52;22.60;99.90
9151;DHT22;4610;50.006;7.490;2022-10-22T08:18:18;22.50;99.90
9151;DHT22;4610;50.006;7.490;2022-10-22T08:20:45;22.10;99.90
9151;DHT22;4610;50.006;7.490;2022-10-22T08:23:12;21.90;99.90
9151;DHT22;4610;50.006;7.490;2022-10-22T08:25:39;22.00;99.90
9151;DHT22;4610;50.006;7.490;2022-10-22T08:28:05;22.30;99.90
9151;DHT22;4610;50.006;7.490;2022-10-22T08:30:34;22.70;99.90
9151;DHT22;4610;50.006;7.490;2022-10-22T08:33:03;23.00;99.90
9151;DHT22;4610;50.006;7.490;2022-10-22T08:35:29;23.10;99.90
9151;DHT22;4610;50.006;7.490;2022-10-22T08:37:56;23.30;99.90
9151;DHT22;4610;50.006;7.490;2022-10-22T08:40:28;23.10;99.90
9151;DHT22;4610;50.006;7.490;2022-10-22T08:43:23;22.90;99.90
9151;DHT22;4610;50.006;7.490;2022-10-22T08:46:07;22.90;99.90
9151;DHT22;4610;50.006;7.490;2022-10-22T08:48:42;22.80;99.90
9151;DHT22;4610;50.006;7.490;2022-10-22T08:51:12;22.50;99.90
9151;DHT22;4610;50.006;7.490;2022-10-22T08:53:46;22.70;99.90
9151;DHT22;4610;50.006;7.490;2022-10-22T08:56:17;22.40;99.90
9151;DHT22;4610;50.006;7.490;2022-10-22T08:58:48;22.10;99.90
9151;DHT22;4610;50.006;7.490;2022-10-22T09:01:32;21.90;99.90
9151;DHT22;4610;50.006;7.490;2022-10-22T09:04:04;21.60;99.90
9151;DHT22;4610;50.006;7.490;2022-10-22T09:06:36;21.40;99.90
9151;DHT22;4610;50.006;7.490;2022-10-22T09:09:10;21.00;99.90
9151;DHT22;4610;50.006;7.490;2022-10-22T09:11:39;21.10;99.90
9151;DHT22;4610;50.006;7.490;2022-10-22T09:14:10;21.30;99.90
9151;DHT22;4610;50.006;7.490;2022-10-22T09:16:54;21.40;99.90
9151;DHT22;4610;50.006;7.490;2022-10-22T09:19:32;21.20;99.90
9151;DHT22;4610;50.006;7.490;2022-10-22T09:22:07;20.80;99.90
9151;DHT22;4610;50.006;7.490;2022-10-22T09:24:45;20.60;99.90
9151;DHT22;4610;50.006;7.490;2022-10-22T09:27:14;20.20;99.90
9151;DHT22;4610;50.006;7.490;2022-10-22T09:29:43;19.90;99.90
9151;DHT22;4610;50.006;7.490;2022-10-22T09:32:11;19.70;99.90
9151;DHT22;4610;50.006;7.490;2022-10-22T09:34:39;19.40;99.90
9151;DHT22;4610;50.006;7.490;2022-10-22T09:37:08;19.50;99.90
9151;DHT22;4610;50.006;7.490;2022-10-22T09:39:37;20.20;99.90
9151;DHT22;4610;50.006;7.490;2022-10-22T09:42:04;21.00;99.90
9151;DHT22;4610;50.006;7.490;2022-10-22T09:44:32;21.40;99.90
9151;DHT22;4610;50.006;7.490;2022-10-22T09:47:03;21.70;99.90
9151;DHT22;4610;50.006;7.490;2022-10-22T09:49:33;21.90;99.90
9151;DHT22;4610;50.006;7.490;2022-10-22T09:52:01;22.20;99.90
9151;DHT22;4610;50.006;7.490;2022-10-22T09:54:37;22.50;99.90
9151;DHT22;4610;50.006;7.490;2022-10-22T09:57:13;22.80;99.90
9151;DHT22;4610;50.006;7.490;2022-10-22T09:59:42;23.00;99.90
9151;DHT22;4610;50.006;7.490;2022-10-22T10:02:11;22.50;99.90
9151;DHT22;4610;50.006;7.490;2022-10-22T10:04:44;22.30;99.90
9151;DHT22;4610;50.006;7.490;2022-10-22T10:07:16;22.20;99.90
9151;DHT22;4610;50.006;7.490;2022-10-22T10:09:43;22.10;99.90
9151;DHT22;4610;50.006;7.490;2022-10-22T10:12:29;21.70;99.90
9151;DHT22;4610;50.006;7.490;2022-10-22T10:15:06;21.60;99.90
9151;DHT22;4610;50.006;7.490;2022-10-22T10:17:43;21.60;99.90
9151;DHT22;4610;50.006;7.490;2022-10-22T10:20:24;21.70;99.90
9151;DHT22;4610;50.006;7.490;2022-10-22T10:22:57;21.30;99.90
9151;DHT22;4610;50.006;7.490;2022-10-22T10:25:41;20.90;99.90
9151;DHT22;4610;50.006;7.490;2022-10-22T10:28:20;20.70;99.90
9151;DHT22;4610;50.006;7.490;2022-10-22T10:30:54;20.50;99.90
9151;DHT22;4610;50.006;7.490;2022-10-22T10:33:30;20.30;99.90
9151;DHT22;4610;50.006;7.490;2022-10-22T10:36:05;20.00;99.90
9151;DHT22;4610;50.006;7.490;2022-10-22T10:38:41;19.80;99.90
9151;DHT22;4610;50.006;7.490;2022-10-22T10:41:16;19.60;99.90
9151;DHT22;4610;50.006;7.490;2022-10-22T10:44:01;19.40;99.90
9151;DHT22;4610;50.006;7.490;2022-10-22T10:46:37;19.30;99.90
9151;DHT22;4610;50.006;7.490;2022-10-22T10:49:08;19.20;99.90
9151;DHT22;4610;50.006;7.490;2022-10-22T10:51:45;19.10;99.90
9151;DHT22;4610;50.006;7.490;2022-10-22T10:54:27;19.20;99.90
9151;DHT22;4610;50.006;7.490;2022-10-22T10:56:59;19.20;99.90
9151;DHT22;4610;50.006;7.490;2022-10-22T10:59:40;19.30;99.90
9151;DHT22;4610;50.006;7.490;2022-10-22T11:02:31;19.30;99.90
9151;DHT22;4610;50.006;7.490;2022-10-22T11:05:14;19.50;99.90
9151;DHT22;4610;50.006;7.490;2022-10-22T11:07:48;19.40;99.90
9151;DHT22;4610;50.006;7.490;2022-10-22T11:10:25;18.70;99.90
9151;DHT22;4610;50.006;7.490;2022-10-22T11:12:56;19.20;99.90
9151;DHT22;4610;50.006;7.490;2022-10-22T11:15:28;19.20;99.90
9151;DHT22;4610;50.006;7.490;2022-10-22T11:18:02;19.20;99.90
9151;DHT22;4610;50.006;7.490;2022-10-22T11:20:42;19.20;99.90
9151;DHT22;4610;50.006;7.490;2022-10-22T11:23:15;19.20;99.90
9151;DHT22;4610;50.006;7.490;2022-10-22T11:25:44;19.40;99.90
9151;DHT22;4610;50.006;7.490;2022-10-22T11:28:14;19.50;99.90
9151;DHT22;4610;50.006;7.490;2022-10-22T11:30:44;19.60;99.90
9151;DHT22;4610;50.006;7.490;2022-10-22T11:33:17;19.70;99.90
9151;DHT22;4610;50.006;7.490;2022-10-22T11:35:45;19.80;99.90
9151;DHT22;4610;50.006;7.490;2022-10-22T11:38:16;20.00;99.90
9151;DHT22;4610;50.006;7.490;2022-10-22T11:40:46;20.10;99.90
9151;DHT22;4610;50.006;7.490;2022-10-22T11:43:26;20.10;99.90
9151;DHT22;4610;50.006;7.490;2022-10-22T11:45:57;19.80;99.90
9151;DHT22;4610;50.006;7.490;2022-10-22T11:48:27;19.40;99.90
9151;DHT22;4610;50.006;7.490;2022-10-22T11:51:01;19.00;99.90
9151;DHT22;4610;50.006;7.490;2022-10-22T11:53:32;18.80;99.90
9151;DHT22;4610;50.006;7.490;2022-10-22T11:56:21;18.70;99.90
9151;DHT22;4610;50.006;7.490;2022-10-22T11:58:48;18.40;99.90
9151;DHT22;4610;50.006;7.490;2022-10-22T12:01:26;18.40;99.90
9151;DHT22;4610;50.006;7.490;2022-10-22T12:04:15;18.30;99.90
9151;DHT22;4610;50.006;7.490;2022-10-22T12:06:58;18.30;99.90
9151;DHT22;4610;50.006;7.490;2022-10-22T12:09:28;18.40;99.90
9151;DHT22;4610;50.006;7.490;2022-10-22T12:12:11;18.50;99.90
9151;DHT22;4610;50.006;7.490;2022-10-22T12:14:51;18.50;99.90
9151;DHT22;4610;50.006;7.490;2022-10-22T12:17:19;18.40;99.90
9151;DHT22;4610;50.006;7.490;2022-10-22T12:19:48;18.30;99.90
9151;DHT22;4610;50.006;7.490;2022-10-22T12:22:19;18.20;99.90
9151;DHT22;4610;50.006;7.490;2022-10-22T12:24:50;18.10;99.90
9151;DHT22;4610;50.006;7.490;2022-10-22T12:27:19;18.10;99.90
9151;DHT22;4610;50.006;7.490;2022-10-22T12:29:46;18.20;99.90
9151;DHT22;4610;50.006;7.490;2022-10-22T12:32:15;18.20;99.90
9151;DHT22;4610;50.006;7.490;2022-10-22T12:34:46;18.30;99.90
9151;DHT22;4610;50.006;7.490;2022-10-22T12:37:14;18.20;99.90
9151;DHT22;4610;50.006;7.490;2022-10-22T12:39:41;18.20;99.90
9151;DHT22;4610;50.006;7.490;2022-10-22T12:42:12;18.10;99.90
9151;DHT22;4610;50.006;7.490;2022-10-22T12:44:39;18.10;99.90
9151;DHT22;4610;50.006;7.490;2022-10-22T12:47:10;17.90;99.90
9151;DHT22;4610;50.006;7.490;2022-10-22T12:49:40;16.60;99.90
9151;DHT22;4610;50.006;7.490;2022-10-22T12:52:13;17.90;99.90
9151;DHT22;4610;50.006;7.490;2022-10-22T12:54:41;17.90;99.90
9151;DHT22;4610;50.006;7.490;2022-10-22T12:57:13;17.90;99.90
9151;DHT22;4610;50.006;7.490;2022-10-22T12:59:43;17.80;99.90
9151;DHT22;4610;50.006;7.490;2022-10-22T13:02:16;17.90;99.90
9151;DHT22;4610;50.006;7.490;2022-10-22T13:07:47;18.30;99.90
9151;DHT22;4610;50.006;7.490;2022-10-22T13:10:18;18.40;99.90
9151;DHT22;4610;50.006;7.490;2022-10-22T13:12:50;18.40;99.90
9151;DHT22;4610;50.006;7.490;2022-10-22T13:15:29;18.60;99.90
9151;DHT22;4610;50.006;7.490;2022-10-22T13:18:01;18.60;99.90
9151;DHT22;4610;50.006;7.490;2022-10-22T13:20:28;18.60;99.90
9151;DHT22;4610;50.006;7.490;2022-10-22T13:22:56;18.50;99.90
9151;DHT22;4610;50.006;7.490;2022-10-22T13:25:27;18.30;99.90
9151;DHT22;4610;50.006;7.490;2022-10-22T13:27:57;18.60;99.90
9151;DHT22;4610;50.006;7.490;2022-10-22T13:30:27;18.10;99.90
9151;DHT22;4610;50.006;7.490;2022-10-22T13:32:55;17.90;99.90
9151;DHT22;4610;50.006;7.490;2022-10-22T13:35:24;17.80;99.90
9151;DHT22;4610;50.006;7.490;2022-10-22T13:37:52;17.80;99.90
9151;DHT22;4610;50.006;7.490;2022-10-22T13:40:20;17.70;99.90
9151;DHT22;4610;50.006;7.490;2022-10-22T13:42:47;17.70;99.90
9151;DHT22;4610;50.006;7.490;2022-10-22T13:45:15;17.70;99.90
9151;DHT22;4610;50.006;7.490;2022-10-22T13:47:46;17.80;99.90
9151;DHT22;4610;50.006;7.490;2022-10-22T13:50:15;17.80;99.90
9151;DHT22;4610;50.006;7.490;2022-10-22T13:52:44;17.80;99.90
9151;DHT22;4610;50.006;7.490;2022-10-22T13:55:17;17.80;99.90
9151;DHT22;4610;50.006;7.490;2022-10-22T13:57:44;17.90;99.90
9151;DHT22;4610;50.006;7.490;2022-10-22T14:00:15;17.90;99.90
9151;DHT22;4610;50.006;7.490;2022-10-22T14:02:43;18.00;99.90
9151;DHT22;4610;50.006;7.490;2022-10-22T14:05:11;18.00;99.90
9151;DHT22;4610;50.006;7.490;2022-10-22T14:07:38;18.10;99.90
9151;DHT22;4610;50.006;7.490;2022-10-22T14:10:17;18.00;99.90
9151;DHT22;4610;50.006;7.490;2022-10-22T14:12:44;17.90;99.90
9151;DHT22;4610;50.006;7.490;2022-10-22T14:15:12;17.90;99.90
9151;DHT22;4610;50.006;7.490;2022-10-22T14:17:42;17.70;99.90
9151;DHT22;4610;50.006;7.490;2022-10-22T14:20:14;17.50;99.90
9151;DHT22;4610;50.006;7.490;2022-10-22T14:22:43;17.40;99.90
9151;DHT22;4610;50.006;7.490;2022-10-22T14:25:13;18.60;99.90
9151;DHT22;4610;50.006;7.490;2022-10-22T14:27:40;17.20;99.90
9151;DHT22;4610;50.006;7.490;2022-10-22T14:30:08;17.10;99.90
9151;DHT22;4610;50.006;7.490;2022-10-22T14:32:35;17.20;99.90
9151;DHT22;4610;50.006;7.490;2022-10-22T14:35:03;17.20;99.90
9151;DHT22;4610;50.006;7.490;2022-10-22T14:37:30;17.20;99.90
9151;DHT22;4610;50.006;7.490;2022-10-22T14:39:57;17.10;99.90
9151;DHT22;4610;50.006;7.490;2022-10-22T14:42:27;16.30;99.90
9151;DHT22;4610;50.006;7.490;2022-10-22T14:44:54;17.10;99.90
9151;DHT22;4610;50.006;7.490;2022-10-22T14:47:21;17.10;99.90
9151;DHT22;4610;50.006;7.490;2022-10-22T14:49:48;17.20;99.90
9151;DHT22;4610;50.006;7.490;2022-10-22T14:52:16;17.20;99.90
9151;DHT22;4610;50.006;7.490;2022-10-22T14:54:44;17.20;99.90
9151;DHT22;4610;50.006;7.490;2022-10-22T14:57:13;17.20;99.90
9151;DHT22;4610;50.006;7.490;2022-10-22T14:59:41;17.10;99.90
9151;DHT22;4610;50.006;7.490;2022-10-22T15:02:09;17.10;99.90
9151;DHT22;4610;50.006;7.490;2022-10-22T15:04:37;17.10;99.90
9151;DHT22;4610;50.006;7.490;2022-10-22T15:07:04;17.10;99.90
9151;DHT22;4610;50.006;7.490;2022-10-22T15:09:32;17.00;99.90
9151;DHT22;4610;50.006;7.490;2022-10-22T15:11:59;17.00;99.90
9151;DHT22;4610;50.006;7.490;2022-10-22T15:14:26;17.10;99.90
9151;DHT22;4610;50.006;7.490;2022-10-22T15:16:53;17.00;99.90
9151;DHT22;4610;50.006;7.490;2022-10-22T15:19:19;17.00;99.90
9151;DHT22;4610;50.006;7.490;2022-10-22T15:21:46;16.90;99.90
9151;DHT22;4610;50.006;7.490;2022-10-22T15:24:13;16.80;99.90
9151;DHT22;4610;50.006;7.490;2022-10-22T15:26:41;16.70;99.90
9151;DHT22;4610;50.006;7.490;2022-10-22T15:29:08;16.70;99.90
9151;DHT22;4610;50.006;7.490;2022-10-22T15:31:44;16.60;99.90
9151;DHT22;4610;50.006;7.490;2022-10-22T15:34:11;16.60;99.90
9151;DHT22;4610;50.006;7.490;2022-10-22T15:36:38;16.50;99.90
9151;DHT22;4610;50.006;7.490;2022-10-22T15:39:07;16.50;99.90
9151;DHT22;4610;50.006;7.490;2022-10-22T15:41:34;16.30;99.90
9151;DHT22;4610;50.006;7.490;2022-10-22T15:44:03;16.50;99.90
9151;DHT22;4610;50.006;7.490;2022-10-22T15:46:31;16.40;99.90
9151;DHT22;4610;50.006;7.490;2022-10-22T15:48:58;16.20;99.90
9151;DHT22;4610;50.006;7.490;2022-10-22T15:51:25;16.00;99.90
9151;DHT22;4610;50.006;7.490;2022-10-22T15:53:54;15.80;99.90
9151;DHT22;4610;50.006;7.490;2022-10-22T15:56:22;15.70;99.90
9151;DHT22;4610;50.006;7.490;2022-10-22T15:58:52;15.50;99.90
9151;DHT22;4610;50.006;7.490;2022-10-22T16:01:21;15.50;99.90
9151;DHT22;4610;50.006;7.490;2022-10-22T16:03:48;15.40;99.90
9151;DHT22;4610;50.006;7.490;2022-10-22T16:06:17;15.40;99.90
9151;DHT22;4610;50.006;7.490;2022-10-22T16:08:44;15.30;99.90
9151;DHT22;4610;50.006;7.490;2022-10-22T16:11:11;15.30;99.90
9151;DHT22;4610;50.006;7.490;2022-10-22T16:13:38;15.30;99.90
9151;DHT22;4610;50.006;7.490;2022-10-22T16:16:05;15.30;99.90
9151;DHT22;4610;50.006;7.490;2022-10-22T16:18:34;15.30;99.90
9151;DHT22;4610;50.006;7.490;2022-10-22T16:21:01;15.20;99.90
9151;DHT22;4610;50.006;7.490;2022-10-22T16:23:28;15.20;99.90
9151;DHT22;4610;50.006;7.490;2022-10-22T16:25:55;15.10;99.90